createdAt,value
2022-11-20T00:01:39.460Z,3.45
2022-11-20T00:04:08.225Z,3.45
2022-11-20T00:06:36.758Z,3.45
2022-11-20T00:09:06.400Z,3.47
2022-11-20T00:11:36.030Z,3.46
2022-11-20T00:14:04.882Z,3.48
2022-11-20T00:16:34.980Z,3.50
2022-11-20T00:19:03.686Z,3.49
2022-11-20T00:21:32.483Z,3.48
2022-11-20T00:24:01.377Z,3.47
2022-11-20T00:26:31.074Z,3.46
2022-11-20T00:29:03.381Z,3.46
2022-11-20T00:31:33.984Z,3.46
2022-11-20T00:34:02.503Z,3.46
2022-11-20T00:36:34.689Z,3.47
2022-11-20T00:39:03.562Z,3.48
2022-11-20T00:41:32.305Z,3.50
2022-11-20T00:44:02.276Z,3.52
2022-11-20T00:46:31.206Z,3.51
2022-11-20T00:48:59.831Z,3.51
2022-11-20T00:51:29.861Z,3.50
2022-11-20T00:54:00.820Z,3.48
2022-11-20T00:56:29.494Z,3.48
2022-11-20T00:59:01.003Z,3.46
2022-11-20T01:01:31.176Z,3.41
2022-11-20T01:04:01.945Z,3.37
2022-11-20T01:06:33.054Z,3.32
2022-11-20T01:09:03.472Z,3.25
2022-11-20T01:11:34.775Z,3.18
2022-11-20T01:14:05.916Z,3.13
2022-11-20T01:16:38.558Z,3.10
2022-11-20T01:19:09.713Z,3.11
2022-11-20T01:21:40.725Z,3.15
2022-11-20T01:24:12.515Z,3.18
2022-11-20T01:26:43.834Z,3.18
2022-11-20T01:29:16.107Z,3.19
2022-11-20T01:31:46.620Z,3.17
2022-11-20T01:34:17.393Z,3.17
2022-11-20T01:36:46.641Z,3.15
2022-11-20T01:39:18.671Z,3.16
2022-11-20T01:42:09.871Z,3.15
2022-11-20T01:44:57.691Z,3.13
2022-11-20T01:47:41.610Z,3.14
2022-11-20T01:50:17.110Z,3.14
2022-11-20T01:52:51.444Z,3.17
2022-11-20T01:55:24.323Z,3.17
2022-11-20T01:57:52.846Z,3.16
2022-11-20T02:00:22.864Z,3.16
2022-11-20T02:02:59.105Z,3.15
2022-11-20T02:05:35.091Z,3.16
2022-11-20T02:08:07.097Z,3.17
2022-11-20T02:10:36.038Z,3.16
2022-11-20T02:13:22.244Z,3.15
2022-11-20T02:15:51.464Z,3.18
2022-11-20T02:18:23.499Z,3.19
2022-11-20T02:20:58.080Z,3.21
2022-11-20T02:23:29.033Z,3.20
2022-11-20T02:26:00.368Z,3.19
2022-11-20T02:28:29.426Z,3.19
2022-11-20T02:30:57.691Z,3.19
2022-11-20T02:33:26.324Z,3.20
2022-11-20T02:35:54.988Z,3.20
2022-11-20T02:38:23.355Z,3.20
2022-11-20T02:40:55.572Z,3.19
2022-11-20T02:43:25.599Z,3.19
2022-11-20T02:45:54.083Z,3.18
2022-11-20T02:48:25.081Z,3.22
2022-11-20T02:50:53.980Z,3.22
2022-11-20T02:53:22.526Z,3.19
2022-11-20T02:55:51.054Z,3.22
2022-11-20T02:58:19.838Z,3.22
2022-11-20T03:00:49.431Z,3.20
2022-11-20T03:03:18.083Z,3.20
2022-11-20T03:05:46.570Z,3.20
2022-11-20T03:08:15.158Z,3.21
2022-11-20T03:10:43.700Z,3.21
2022-11-20T03:13:12.251Z,3.25
2022-11-20T03:15:40.796Z,3.26
2022-11-20T03:18:10.467Z,3.27
2022-11-20T03:20:38.980Z,3.29
2022-11-20T03:23:07.315Z,3.31
2022-11-20T03:25:36.474Z,3.31
2022-11-20T03:28:05.003Z,3.32
2022-11-20T03:30:33.494Z,3.30
2022-11-20T03:33:02.011Z,3.30
2022-11-20T03:35:31.547Z,3.28
2022-11-20T03:38:00.458Z,3.28
2022-11-20T03:40:28.967Z,3.29
2022-11-20T03:42:57.164Z,3.27
2022-11-20T03:45:25.342Z,3.26
2022-11-20T03:47:53.958Z,3.25
2022-11-20T03:50:22.454Z,3.26
2022-11-20T03:52:52.007Z,3.28
2022-11-20T03:55:20.537Z,3.28
2022-11-20T03:57:49.010Z,3.30
2022-11-20T04:00:18.058Z,3.31
2022-11-20T04:02:46.616Z,3.32
2022-11-20T04:05:15.290Z,3.35
2022-11-20T04:07:43.789Z,3.35
2022-11-20T04:10:13.705Z,3.35
2022-11-20T04:12:42.298Z,3.37
2022-11-20T04:15:11.419Z,3.39
2022-11-20T04:17:39.981Z,3.41
2022-11-20T04:20:09.888Z,3.42
2022-11-20T04:22:38.414Z,3.44
2022-11-20T04:25:07.667Z,3.46
2022-11-20T04:27:37.487Z,3.46
2022-11-20T04:30:06.840Z,3.47
2022-11-20T04:32:35.039Z,3.48
2022-11-20T04:35:03.755Z,3.47
2022-11-20T04:37:32.238Z,3.46
2022-11-20T04:40:00.748Z,3.47
2022-11-20T04:42:32.143Z,3.48
2022-11-20T04:45:01.811Z,3.47
2022-11-20T04:47:30.352Z,3.48
2022-11-20T04:49:59.163Z,3.50
2022-11-20T04:52:27.780Z,3.51
2022-11-20T04:54:56.415Z,3.51
2022-11-20T04:57:24.927Z,3.53
2022-11-20T04:59:53.603Z,3.54
2022-11-20T05:02:23.546Z,3.54
2022-11-20T05:04:52.247Z,3.56
2022-11-20T05:07:20.804Z,3.56
2022-11-20T05:09:49.365Z,3.56
2022-11-20T05:12:17.874Z,3.58
2022-11-20T05:14:46.441Z,3.56
2022-11-20T05:17:15.255Z,3.58
2022-11-20T05:19:46.026Z,3.58
2022-11-20T05:22:16.967Z,3.57
2022-11-20T05:24:45.490Z,3.58
2022-11-20T05:27:14.134Z,3.58
2022-11-20T05:29:42.686Z,3.57
2022-11-20T05:32:11.219Z,3.58
2022-11-20T05:34:39.774Z,3.60
2022-11-20T05:37:09.461Z,3.61
2022-11-20T05:39:37.979Z,3.62
2022-11-20T05:42:24.248Z,3.63
2022-11-20T05:44:52.979Z,3.63
2022-11-20T05:47:21.208Z,3.65
2022-11-20T05:49:49.471Z,3.65
2022-11-20T05:52:19.156Z,3.66
2022-11-20T05:54:47.722Z,3.65
2022-11-20T05:57:16.274Z,3.66
2022-11-20T05:59:45.026Z,3.68
2022-11-20T06:02:13.494Z,3.69
2022-11-20T06:04:42.534Z,3.69
2022-11-20T06:07:11.283Z,3.70
2022-11-20T06:09:40.985Z,3.67
2022-11-20T06:12:09.516Z,3.65
2022-11-20T06:14:37.999Z,3.65
2022-11-20T06:17:06.486Z,3.65
2022-11-20T06:19:34.998Z,3.65
2022-11-20T06:22:03.493Z,3.65
2022-11-20T06:24:31.969Z,3.67
2022-11-20T06:27:01.647Z,3.69
2022-11-20T06:29:33.721Z,3.70
2022-11-20T06:32:02.957Z,3.70
2022-11-20T06:34:31.171Z,3.70
2022-11-20T06:36:59.687Z,3.71
2022-11-20T06:39:28.257Z,3.72
2022-11-20T06:41:58.994Z,3.73
2022-11-20T06:44:28.986Z,3.72
2022-11-20T06:46:57.485Z,3.74
2022-11-20T06:49:26.532Z,3.74
2022-11-20T06:51:55.061Z,3.77
2022-11-20T06:54:23.564Z,3.78
2022-11-20T06:56:52.110Z,3.78
2022-11-20T06:59:20.978Z,3.78
2022-11-20T07:01:50.747Z,3.78
2022-11-20T07:04:19.534Z,3.77
2022-11-20T07:06:48.056Z,3.77
2022-11-20T07:09:17.289Z,3.79
2022-11-20T07:11:45.600Z,3.80
2022-11-20T07:14:14.129Z,3.82
2022-11-20T07:16:42.577Z,3.83
2022-11-20T07:19:12.755Z,3.85
2022-11-20T07:21:41.385Z,3.87
2022-11-20T07:24:09.975Z,3.90
2022-11-20T07:26:38.223Z,3.93
2022-11-20T07:29:06.853Z,3.95
2022-11-20T07:31:35.331Z,3.97
2022-11-20T07:34:04.017Z,3.98
2022-11-20T07:36:33.774Z,3.99
2022-11-20T07:39:02.685Z,4.00
2022-11-20T07:41:31.251Z,4.02
2022-11-20T07:43:59.517Z,4.05
2022-11-20T07:46:27.799Z,4.07
2022-11-20T07:48:56.363Z,4.09
2022-11-20T07:51:24.861Z,4.10
2022-11-20T07:53:54.726Z,4.11
2022-11-20T07:56:23.252Z,4.12
2022-11-20T07:58:51.750Z,4.15
2022-11-20T08:01:20.298Z,4.16
2022-11-20T08:03:48.827Z,4.17
2022-11-20T08:06:17.094Z,4.15
2022-11-20T08:08:45.626Z,4.17
2022-11-20T08:11:32.648Z,4.17
2022-11-20T08:14:16.754Z,4.18
2022-11-20T08:16:48.267Z,4.17
2022-11-20T08:19:19.458Z,4.19
2022-11-20T08:21:48.461Z,4.21
2022-11-20T08:24:17.065Z,4.25
2022-11-20T08:26:46.748Z,4.27
2022-11-20T08:29:15.270Z,4.29
2022-11-20T08:31:43.528Z,4.31
2022-11-20T08:34:16.207Z,4.32
2022-11-20T08:36:47.350Z,4.36
2022-11-20T08:39:16.507Z,4.39
2022-11-20T08:41:46.449Z,4.42
2022-11-20T08:44:15.036Z,4.43
2022-11-20T08:46:46.667Z,4.45
2022-11-20T08:49:16.059Z,4.45
2022-11-20T08:51:44.479Z,4.43
2022-11-20T08:54:12.967Z,4.41
2022-11-20T08:56:41.499Z,4.41
2022-11-20T08:59:26.968Z,4.40
2022-11-20T09:01:59.442Z,4.42
2022-11-20T09:04:27.915Z,4.44
2022-11-20T09:06:56.198Z,4.45
2022-11-20T09:09:24.966Z,4.48
2022-11-20T09:11:53.748Z,4.49
2022-11-20T09:14:25.681Z,4.52
2022-11-20T09:16:54.221Z,4.54
2022-11-20T09:19:38.028Z,4.56
2022-11-20T09:22:06.609Z,4.56
2022-11-20T09:24:35.174Z,4.60
2022-11-20T09:27:07.207Z,4.63
2022-11-20T09:29:36.818Z,4.66
2022-11-20T09:32:05.734Z,4.68
2022-11-20T09:34:34.459Z,4.68
2022-11-20T09:37:06.260Z,4.71
2022-11-20T09:39:40.068Z,4.72
2022-11-20T09:42:34.891Z,4.74
2022-11-20T09:45:24.879Z,4.78
2022-11-20T09:48:20.591Z,4.81
2022-11-20T09:50:55.510Z,4.83
2022-11-20T09:53:37.284Z,4.88
2022-11-20T09:56:06.777Z,4.90
2022-11-20T09:58:42.812Z,4.89
2022-11-20T10:01:17.407Z,4.89
2022-11-20T10:03:55.229Z,4.83
2022-11-20T10:06:31.628Z,4.82
2022-11-20T10:09:15.593Z,4.81
2022-11-20T10:11:54.716Z,4.83
2022-11-20T10:14:35.815Z,4.87
2022-11-20T10:17:19.167Z,4.88
2022-11-20T10:20:04.881Z,4.89
2022-11-20T10:22:49.691Z,4.87
2022-11-20T10:25:21.334Z,4.84
2022-11-20T10:28:23.771Z,4.79
2022-11-20T10:31:05.582Z,4.77
2022-11-20T10:34:04.956Z,4.78
2022-11-20T10:36:44.390Z,4.75
2022-11-20T10:39:27.597Z,4.71
2022-11-20T10:41:58.126Z,4.75
2022-11-20T10:44:52.520Z,4.73
2022-11-20T10:47:23.767Z,4.72
2022-11-20T10:49:57.569Z,4.75
2022-11-20T10:52:40.778Z,4.80
2022-11-20T10:55:24.574Z,4.85
2022-11-20T10:58:02.814Z,4.93
2022-11-20T11:00:33.512Z,5.00
2022-11-20T11:03:04.045Z,5.06
2022-11-20T11:05:43.158Z,5.12
2022-11-20T11:08:16.639Z,5.19
2022-11-20T11:10:53.100Z,5.24
2022-11-20T11:13:24.445Z,5.28
2022-11-20T11:15:53.741Z,5.32
2022-11-20T11:18:30.906Z,5.35
2022-11-20T11:21:05.200Z,5.37
2022-11-20T11:23:37.223Z,5.36
2022-11-20T11:26:19.962Z,5.41
2022-11-20T11:28:59.066Z,5.51
2022-11-20T11:31:32.698Z,5.63
2022-11-20T11:34:07.835Z,5.72
2022-11-20T11:36:38.290Z,5.82
2022-11-20T11:39:13.479Z,5.90
2022-11-20T11:41:43.630Z,6.00
2022-11-20T11:44:39.551Z,6.06
2022-11-20T11:47:14.119Z,6.09
2022-11-20T11:49:42.703Z,6.13
2022-11-20T11:52:18.089Z,6.16
2022-11-20T11:54:55.135Z,6.20
2022-11-20T11:57:43.002Z,6.25
2022-11-20T12:00:14.630Z,6.26
2022-11-20T12:02:59.623Z,6.19
2022-11-20T12:05:30.535Z,6.12
2022-11-20T12:08:12.385Z,6.08
2022-11-20T12:10:50.359Z,6.06
2022-11-20T12:13:36.900Z,6.06
2022-11-20T12:16:06.654Z,6.06
2022-11-20T12:18:35.456Z,6.05
2022-11-20T12:21:23.024Z,6.03
2022-11-20T12:24:13.300Z,6.04
2022-11-20T12:26:58.205Z,6.08
2022-11-20T12:29:42.158Z,6.14
2022-11-20T12:32:57.148Z,6.20
2022-11-20T12:35:52.126Z,6.30
2022-11-20T12:38:49.962Z,6.38
2022-11-20T12:42:01.413Z,6.45
2022-11-20T12:45:07.136Z,6.50
2022-11-20T12:47:41.135Z,6.51
2022-11-20T12:50:19.714Z,6.57
2022-11-20T12:52:56.731Z,6.63
2022-11-20T12:55:50.363Z,6.69
2022-11-20T12:58:29.373Z,6.75
2022-11-20T13:01:02.411Z,6.75
2022-11-20T13:03:49.430Z,6.73
2022-11-20T13:06:19.906Z,6.72
2022-11-20T13:08:55.461Z,6.73
2022-11-20T13:11:34.267Z,6.76
2022-11-20T13:14:28.977Z,6.79
2022-11-20T13:17:06.028Z,6.85
2022-11-20T13:19:35.773Z,6.90
2022-11-20T13:22:04.342Z,6.94
2022-11-20T13:24:34.213Z,6.98
2022-11-20T13:27:19.916Z,7.01
2022-11-20T13:30:04.796Z,7.06
2022-11-20T13:32:33.455Z,7.10
2022-11-20T13:35:04.300Z,7.14
2022-11-20T13:37:35.010Z,7.18
2022-11-20T13:40:24.606Z,7.23
2022-11-20T13:43:13.310Z,7.28
2022-11-20T13:45:43.125Z,7.38
2022-11-20T13:48:24.687Z,7.44
2022-11-20T13:51:10.494Z,7.53
2022-11-20T13:54:05.682Z,7.67
2022-11-20T13:56:49.782Z,7.76
2022-11-20T13:59:38.954Z,7.81
2022-11-20T14:02:15.267Z,7.84
2022-11-20T14:04:48.675Z,7.85
2022-11-20T14:07:18.685Z,7.89
2022-11-20T14:09:54.017Z,7.92
2022-11-20T14:12:29.388Z,7.95
2022-11-20T14:14:58.579Z,7.99
2022-11-20T14:17:35.226Z,8.05
2022-11-20T14:20:08.197Z,8.09
2022-11-20T14:22:37.315Z,8.10
2022-11-20T14:25:22.531Z,8.10
2022-11-20T14:27:54.894Z,8.08
2022-11-20T14:30:26.744Z,8.05
2022-11-20T14:33:02.553Z,8.01
2022-11-20T14:35:36.390Z,7.97
2022-11-20T14:38:05.882Z,7.93
2022-11-20T14:40:37.515Z,7.90
2022-11-20T14:43:21.040Z,7.85
2022-11-20T14:45:57.994Z,7.85
2022-11-20T14:48:33.938Z,7.84
2022-11-20T14:51:02.689Z,7.85
2022-11-20T14:53:31.343Z,7.86
2022-11-20T14:56:02.478Z,7.87
2022-11-20T14:58:34.220Z,7.87
2022-11-20T15:01:05.486Z,7.86
2022-11-20T15:03:37.087Z,7.84
2022-11-20T15:06:06.612Z,7.83
2022-11-20T15:08:35.862Z,7.79
2022-11-20T15:11:04.790Z,7.76
2022-11-20T15:13:36.675Z,7.74
2022-11-20T15:16:14.356Z,7.72
2022-11-20T15:18:45.358Z,7.70
2022-11-20T15:21:15.690Z,7.68
2022-11-20T15:23:44.802Z,7.67
2022-11-20T15:26:19.924Z,7.65
2022-11-20T15:28:51.015Z,7.64
2022-11-20T15:31:22.972Z,7.63
2022-11-20T15:33:53.053Z,7.59
2022-11-20T15:36:21.299Z,7.56
2022-11-20T15:38:50.393Z,7.51
2022-11-20T15:41:18.970Z,7.48
2022-11-20T15:43:47.510Z,7.45
2022-11-20T15:46:18.869Z,7.41
2022-11-20T15:48:52.259Z,7.38
2022-11-20T15:51:28.595Z,7.31
2022-11-20T15:53:57.915Z,7.31
2022-11-20T15:56:27.108Z,7.29
2022-11-20T15:58:55.714Z,7.28
2022-11-20T16:01:24.734Z,7.26
2022-11-20T16:03:53.488Z,7.25
2022-11-20T16:06:23.059Z,7.23
2022-11-20T16:08:51.609Z,7.26
2022-11-20T16:11:20.504Z,7.24
2022-11-20T16:14:06.535Z,7.24
2022-11-20T16:16:41.379Z,7.25
2022-11-20T16:19:13.475Z,7.26
2022-11-20T16:21:43.876Z,7.28
2022-11-20T16:24:15.281Z,7.29
2022-11-20T16:26:44.039Z,7.30
2022-11-20T16:29:12.710Z,7.30
2022-11-20T16:31:41.287Z,7.30
2022-11-20T16:34:12.621Z,7.31
2022-11-20T16:36:44.447Z,7.32
2022-11-20T16:39:20.405Z,7.37
2022-11-20T16:41:51.835Z,7.39
2022-11-20T16:44:20.026Z,7.40
2022-11-20T16:46:48.574Z,7.40
2022-11-20T16:49:17.031Z,7.40
2022-11-20T16:51:46.901Z,7.40
2022-11-20T16:54:20.524Z,7.35
2022-11-20T16:56:51.768Z,7.31
2022-11-20T16:59:20.453Z,7.29
2022-11-20T17:01:49.034Z,7.26
2022-11-20T17:04:18.468Z,7.25
2022-11-20T17:06:48.088Z,7.26
2022-11-20T17:09:16.683Z,7.23
2022-11-20T17:11:45.243Z,7.17
2022-11-20T17:14:13.990Z,7.15
2022-11-20T17:16:42.967Z,7.11
2022-11-20T17:19:11.613Z,7.06
2022-11-20T17:21:40.490Z,7.01
2022-11-20T17:24:13.320Z,6.98
2022-11-20T17:26:43.361Z,6.97
2022-11-20T17:29:14.468Z,6.98
2022-11-20T17:31:43.526Z,7.00
2022-11-20T17:34:13.931Z,7.02
2022-11-20T17:36:45.729Z,7.02
2022-11-20T17:39:17.899Z,6.99
2022-11-20T17:42:07.011Z,6.96
2022-11-20T17:44:35.830Z,6.94
2022-11-20T17:47:04.476Z,6.95
2022-11-20T17:49:33.063Z,6.97
2022-11-20T17:52:01.504Z,7.03
2022-11-20T17:54:31.215Z,7.11
2022-11-20T17:57:17.446Z,7.16
2022-11-20T17:59:46.002Z,7.15
2022-11-20T18:02:14.516Z,7.09
2022-11-20T18:04:43.247Z,7.05
2022-11-20T18:07:11.807Z,7.05
2022-11-20T18:09:41.584Z,7.05
2022-11-20T18:12:10.098Z,7.05
2022-11-20T18:14:38.320Z,7.04
2022-11-20T18:17:08.961Z,7.04
2022-11-20T18:19:47.945Z,7.05
2022-11-20T18:22:29.356Z,7.02
2022-11-20T18:24:58.950Z,6.99
2022-11-20T18:27:27.191Z,6.94
2022-11-20T18:29:55.400Z,6.94
2022-11-20T18:32:24.264Z,6.94
2022-11-20T18:34:52.998Z,6.93
2022-11-20T18:37:22.319Z,6.93
2022-11-20T18:39:50.877Z,6.93
2022-11-20T18:42:37.984Z,6.93
2022-11-20T18:45:07.566Z,6.90
2022-11-20T18:47:39.962Z,6.89
2022-11-20T18:50:10.506Z,6.89
2022-11-20T18:52:44.301Z,6.88
2022-11-20T18:55:13.190Z,6.86
2022-11-20T18:57:42.751Z,6.85
2022-11-20T19:00:12.872Z,6.83
2022-11-20T19:02:43.243Z,6.82
2022-11-20T19:05:12.660Z,6.83
2022-11-20T19:07:41.401Z,6.84
2022-11-20T19:10:10.441Z,6.84
2022-11-20T19:12:38.759Z,6.85
2022-11-20T19:15:09.399Z,6.84
2022-11-20T19:17:37.732Z,6.84
2022-11-20T19:20:06.976Z,6.83
2022-11-20T19:22:35.307Z,6.80
2022-11-20T19:25:03.848Z,6.80
2022-11-20T19:27:32.422Z,6.81
2022-11-20T19:30:03.200Z,6.82
2022-11-20T19:32:35.201Z,6.83
2022-11-20T19:35:04.617Z,6.84
2022-11-20T19:37:35.171Z,6.86
2022-11-20T19:40:05.308Z,6.87
2022-11-20T19:42:33.873Z,6.85
2022-11-20T19:45:02.597Z,6.85
2022-11-20T19:48:00.623Z,6.87
2022-11-20T19:50:21.174Z,6.85
2022-11-20T19:52:52.050Z,6.87
2022-11-20T19:55:24.152Z,6.81
2022-11-20T19:57:52.670Z,6.82
2022-11-20T20:00:28.088Z,6.83
2022-11-20T20:03:02.132Z,6.82
2022-11-20T20:05:30.643Z,6.80
2022-11-20T20:07:58.862Z,6.79
2022-11-20T20:10:28.354Z,6.78
2022-11-20T20:12:57.124Z,6.76
2022-11-20T20:15:27.011Z,6.76
2022-11-20T20:17:56.389Z,6.75
2022-11-20T20:20:26.604Z,6.71
2022-11-20T20:22:55.237Z,6.67
2022-11-20T20:25:23.854Z,6.65
2022-11-20T20:27:52.354Z,6.60
2022-11-20T20:30:20.733Z,6.58
2022-11-20T20:32:54.890Z,6.54
2022-11-20T20:35:25.998Z,6.50
2022-11-20T20:37:55.014Z,6.47
2022-11-20T20:40:23.597Z,6.46
2022-11-20T20:42:52.159Z,6.46
2022-11-20T20:45:20.692Z,6.45
2022-11-20T20:47:49.222Z,6.43
2022-11-20T20:50:17.463Z,6.43
2022-11-20T20:52:47.119Z,6.39
2022-11-20T20:55:15.927Z,6.34
2022-11-20T20:57:44.489Z,6.31
2022-11-20T21:00:13.557Z,6.25
2022-11-20T21:02:41.818Z,6.21
2022-11-20T21:05:10.872Z,6.16
2022-11-20T21:07:59.374Z,6.11
2022-11-20T21:10:30.454Z,6.06
2022-11-20T21:12:59.041Z,6.04
2022-11-20T21:15:27.691Z,6.05
2022-11-20T21:17:56.303Z,6.06
2022-11-20T21:20:42.267Z,6.06
2022-11-20T21:23:11.613Z,6.06
2022-11-20T21:25:41.905Z,6.07
2022-11-20T21:28:14.358Z,6.06
2022-11-20T21:30:46.809Z,6.07
2022-11-20T21:33:15.347Z,6.05
2022-11-20T21:35:43.977Z,6.07
2022-11-20T21:38:12.490Z,6.07
2022-11-20T21:40:42.119Z,6.04
2022-11-20T21:43:10.310Z,6.04
2022-11-20T21:45:38.795Z,6.02
2022-11-20T21:48:07.714Z,5.99
2022-11-20T21:50:36.305Z,5.98
2022-11-20T21:53:04.551Z,5.98
2022-11-20T21:55:33.176Z,6.00
2022-11-20T21:58:02.715Z,6.03
2022-11-20T22:00:30.906Z,6.06
2022-11-20T22:02:59.121Z,6.11
2022-11-20T22:05:27.316Z,6.14
2022-11-20T22:07:55.528Z,6.20
2022-11-20T22:10:24.059Z,6.23
2022-11-20T22:13:14.020Z,6.27
2022-11-20T22:15:59.886Z,6.29
2022-11-20T22:18:29.154Z,6.29
2022-11-20T22:20:57.791Z,6.31
2022-11-20T22:23:26.530Z,6.31
2022-11-20T22:25:55.014Z,6.34
2022-11-20T22:28:23.595Z,6.38
2022-11-20T22:30:53.128Z,6.41
2022-11-20T22:33:21.719Z,6.44
2022-11-20T22:35:50.235Z,6.49
2022-11-20T22:38:18.783Z,6.53
2022-11-20T22:40:48.506Z,6.58
2022-11-20T22:43:17.135Z,6.61
2022-11-20T22:45:46.411Z,6.63
2022-11-20T22:48:16.015Z,6.65
2022-11-20T22:50:44.533Z,6.66
2022-11-20T22:53:13.012Z,6.67
2022-11-20T22:55:41.557Z,6.69
2022-11-20T22:58:10.069Z,6.69
2022-11-20T23:00:38.558Z,6.72
2022-11-20T23:03:07.098Z,6.72
2022-11-20T23:05:36.757Z,6.74
2022-11-20T23:08:05.553Z,6.80
2022-11-20T23:10:34.039Z,6.87
2022-11-20T23:13:02.705Z,6.94
2022-11-20T23:15:30.959Z,6.98
2022-11-20T23:17:59.233Z,7.02
2022-11-20T23:20:27.583Z,7.09
2022-11-20T23:22:57.198Z,7.14
2022-11-20T23:25:25.730Z,7.18
2022-11-20T23:27:55.028Z,7.21
2022-11-20T23:30:23.566Z,7.24
2022-11-20T23:32:52.063Z,7.28
2022-11-20T23:35:20.620Z,7.30
2022-11-20T23:37:49.135Z,7.31
2022-11-20T23:40:19.369Z,7.32
2022-11-20T23:43:01.798Z,7.35
2022-11-20T23:45:30.028Z,7.38
2022-11-20T23:47:58.979Z,7.41
2022-11-20T23:50:27.535Z,7.44
2022-11-20T23:52:56.015Z,7.45
2022-11-20T23:55:25.643Z,7.38
2022-11-20T23:57:54.249Z,7.31
